sensor_id;sensor_type;location;lat;lon;timestamp;P1;durP1;ratioP1;P2;durP2;ratioP2
65405;SDS011;52016;51.228;-2.322;2023-02-15T00:01:09;38.10;;;25.10;;
65405;SDS011;52016;51.228;-2.322;2023-02-15T00:04:51;35.97;;;24.63;;
65405;SDS011;52016;51.228;-2.322;2023-02-15T00:08:34;36.05;;;26.52;;
65405;SDS011;52016;51.228;-2.322;2023-02-15T00:12:16;39.78;;;25.67;;
65405;SDS011;52016;51.228;-2.322;2023-02-15T00:16:02;35.40;;;25.17;;
65405;SDS011;52016;51.228;-2.322;2023-02-15T00:19:44;32.85;;;23.92;;
65405;SDS011;52016;51.228;-2.322;2023-02-15T00:23:26;32.42;;;24.15;;
65405;SDS011;52016;51.228;-2.322;2023-02-15T00:27:08;36.85;;;25.45;;
65405;SDS011;52016;51.228;-2.322;2023-02-15T00:30:50;35.20;;;24.73;;
65405;SDS011;52016;51.228;-2.322;2023-02-15T00:34:32;41.60;;;26.77;;
65405;SDS011;52016;51.228;-2.322;2023-02-15T00:38:14;36.42;;;26.02;;
65405;SDS011;52016;51.228;-2.322;2023-02-15T00:41:55;40.58;;;25.75;;
65405;SDS011;52016;51.228;-2.322;2023-02-15T00:45:37;38.42;;;25.80;;
65405;SDS011;52016;51.228;-2.322;2023-02-15T00:49:19;34.33;;;25.83;;
65405;SDS011;52016;51.228;-2.322;2023-02-15T00:53:01;38.40;;;27.48;;
65405;SDS011;52016;51.228;-2.322;2023-02-15T00:56:43;38.30;;;26.23;;
65405;SDS011;52016;51.228;-2.322;2023-02-15T01:00:24;36.53;;;26.20;;
65405;SDS011;52016;51.228;-2.322;2023-02-15T01:04:06;39.30;;;26.00;;
65405;SDS011;52016;51.228;-2.322;2023-02-15T01:07:48;38.28;;;26.23;;
65405;SDS011;52016;51.228;-2.322;2023-02-15T01:11:30;38.90;;;27.02;;
65405;SDS011;52016;51.228;-2.322;2023-02-15T01:15:11;42.28;;;27.10;;
65405;SDS011;52016;51.228;-2.322;2023-02-15T01:18:53;34.75;;;26.75;;
65405;SDS011;52016;51.228;-2.322;2023-02-15T01:22:35;37.05;;;26.45;;
65405;SDS011;52016;51.228;-2.322;2023-02-15T01:26:17;38.10;;;26.55;;
65405;SDS011;52016;51.228;-2.322;2023-02-15T01:29:59;35.25;;;24.65;;
65405;SDS011;52016;51.228;-2.322;2023-02-15T01:33:41;38.13;;;26.63;;
65405;SDS011;52016;51.228;-2.322;2023-02-15T01:37:23;42.67;;;27.15;;
65405;SDS011;52016;51.228;-2.322;2023-02-15T01:41:05;36.80;;;25.98;;
65405;SDS011;52016;51.228;-2.322;2023-02-15T01:45:19;34.65;;;25.77;;
65405;SDS011;52016;51.228;-2.322;2023-02-15T01:49:12;35.63;;;25.70;;
65405;SDS011;52016;51.228;-2.322;2023-02-15T01:52:58;34.25;;;24.85;;
65405;SDS011;52016;51.228;-2.322;2023-02-15T01:56:50;37.90;;;25.70;;
65405;SDS011;52016;51.228;-2.322;2023-02-15T02:00:32;35.78;;;25.60;;
65405;SDS011;52016;51.228;-2.322;2023-02-15T02:04:26;37.42;;;25.50;;
65405;SDS011;52016;51.228;-2.322;2023-02-15T02:08:16;45.92;;;26.38;;
65405;SDS011;52016;51.228;-2.322;2023-02-15T02:11:58;36.83;;;25.92;;
65405;SDS011;52016;51.228;-2.322;2023-02-15T02:15:52;44.78;;;27.15;;
65405;SDS011;52016;51.228;-2.322;2023-02-15T02:24:40;47.55;;;28.60;;
65405;SDS011;52016;51.228;-2.322;2023-02-15T02:32:28;45.85;;;29.92;;
65405;SDS011;52016;51.228;-2.322;2023-02-15T02:48:50;43.00;;;28.33;;
65405;SDS011;52016;51.228;-2.322;2023-02-15T02:56:21;42.55;;;29.88;;
65405;SDS011;52016;51.228;-2.322;2023-02-15T03:00:08;41.50;;;30.20;;
65405;SDS011;52016;51.228;-2.322;2023-02-15T03:03:52;39.75;;;28.33;;
65405;SDS011;52016;51.228;-2.322;2023-02-15T03:07:42;43.58;;;28.50;;
65405;SDS011;52016;51.228;-2.322;2023-02-15T03:11:29;41.03;;;28.73;;
65405;SDS011;52016;51.228;-2.322;2023-02-15T03:15:24;45.45;;;29.65;;
65405;SDS011;52016;51.228;-2.322;2023-02-15T03:19:31;44.10;;;29.92;;
65405;SDS011;52016;51.228;-2.322;2023-02-15T03:23:17;40.78;;;29.35;;
65405;SDS011;52016;51.228;-2.322;2023-02-15T03:27:03;39.97;;;27.47;;
65405;SDS011;52016;51.228;-2.322;2023-02-15T03:30:49;34.05;;;25.48;;
65405;SDS011;52016;51.228;-2.322;2023-02-15T03:34:34;35.05;;;24.95;;
65405;SDS011;52016;51.228;-2.322;2023-02-15T03:38:17;35.22;;;24.50;;
65405;SDS011;52016;51.228;-2.322;2023-02-15T03:42:11;34.83;;;26.20;;
65405;SDS011;52016;51.228;-2.322;2023-02-15T03:46:01;37.17;;;26.75;;
65405;SDS011;52016;51.228;-2.322;2023-02-15T03:53:41;43.65;;;28.10;;
65405;SDS011;52016;51.228;-2.322;2023-02-15T03:57:25;43.90;;;28.50;;
65405;SDS011;52016;51.228;-2.322;2023-02-15T04:01:39;43.03;;;29.77;;
65405;SDS011;52016;51.228;-2.322;2023-02-15T04:05:38;43.50;;;29.98;;
65405;SDS011;52016;51.228;-2.322;2023-02-15T04:09:21;45.17;;;31.73;;
65405;SDS011;52016;51.228;-2.322;2023-02-15T04:13:29;48.17;;;32.03;;
65405;SDS011;52016;51.228;-2.322;2023-02-15T04:17:12;42.97;;;29.77;;
65405;SDS011;52016;51.228;-2.322;2023-02-15T04:20:54;48.63;;;30.33;;
65405;SDS011;52016;51.228;-2.322;2023-02-15T04:24:54;42.08;;;28.77;;
65405;SDS011;52016;51.228;-2.322;2023-02-15T04:28:54;47.13;;;30.60;;
65405;SDS011;52016;51.228;-2.322;2023-02-15T04:32:36;47.00;;;33.33;;
65405;SDS011;52016;51.228;-2.322;2023-02-15T04:36:18;44.78;;;32.17;;
65405;SDS011;52016;51.228;-2.322;2023-02-15T04:40:00;44.50;;;31.65;;
65405;SDS011;52016;51.228;-2.322;2023-02-15T04:43:42;47.90;;;32.20;;
65405;SDS011;52016;51.228;-2.322;2023-02-15T04:47:24;46.00;;;32.47;;
65405;SDS011;52016;51.228;-2.322;2023-02-15T04:51:06;46.65;;;31.40;;
65405;SDS011;52016;51.228;-2.322;2023-02-15T04:54:48;51.83;;;32.88;;
65405;SDS011;52016;51.228;-2.322;2023-02-15T04:58:30;45.63;;;32.85;;
65405;SDS011;52016;51.228;-2.322;2023-02-15T05:02:12;47.80;;;32.53;;
65405;SDS011;52016;51.228;-2.322;2023-02-15T05:05:54;48.55;;;32.58;;
65405;SDS011;52016;51.228;-2.322;2023-02-15T05:09:36;45.78;;;31.90;;
65405;SDS011;52016;51.228;-2.322;2023-02-15T05:13:18;45.78;;;32.15;;
65405;SDS011;52016;51.228;-2.322;2023-02-15T05:16:59;42.28;;;29.70;;
65405;SDS011;52016;51.228;-2.322;2023-02-15T05:20:42;41.13;;;28.70;;
65405;SDS011;52016;51.228;-2.322;2023-02-15T05:24:24;36.08;;;25.60;;
65405;SDS011;52016;51.228;-2.322;2023-02-15T05:28:25;46.22;;;30.77;;
65405;SDS011;52016;51.228;-2.322;2023-02-15T05:32:08;45.13;;;30.13;;
65405;SDS011;52016;51.228;-2.322;2023-02-15T05:35:50;45.20;;;30.73;;
65405;SDS011;52016;51.228;-2.322;2023-02-15T05:39:32;43.50;;;30.33;;
65405;SDS011;52016;51.228;-2.322;2023-02-15T05:43:14;45.95;;;30.42;;
65405;SDS011;52016;51.228;-2.322;2023-02-15T05:46:56;47.45;;;31.63;;
65405;SDS011;52016;51.228;-2.322;2023-02-15T05:50:37;49.45;;;30.52;;
65405;SDS011;52016;51.228;-2.322;2023-02-15T05:54:19;46.33;;;31.88;;
65405;SDS011;52016;51.228;-2.322;2023-02-15T05:58:01;43.90;;;31.27;;
65405;SDS011;52016;51.228;-2.322;2023-02-15T06:01:42;46.88;;;30.92;;
65405;SDS011;52016;51.228;-2.322;2023-02-15T06:05:24;49.67;;;32.28;;
65405;SDS011;52016;51.228;-2.322;2023-02-15T06:09:06;46.25;;;31.52;;
65405;SDS011;52016;51.228;-2.322;2023-02-15T06:12:48;43.55;;;30.45;;
65405;SDS011;52016;51.228;-2.322;2023-02-15T06:16:29;42.70;;;28.95;;
65405;SDS011;52016;51.228;-2.322;2023-02-15T06:20:11;45.83;;;30.13;;
65405;SDS011;52016;51.228;-2.322;2023-02-15T06:23:53;43.03;;;30.17;;
65405;SDS011;52016;51.228;-2.322;2023-02-15T06:27:35;46.25;;;29.63;;
65405;SDS011;52016;51.228;-2.322;2023-02-15T06:31:17;48.17;;;32.03;;
65405;SDS011;52016;51.228;-2.322;2023-02-15T06:34:59;43.70;;;30.27;;
65405;SDS011;52016;51.228;-2.322;2023-02-15T06:38:41;44.47;;;29.65;;
65405;SDS011;52016;51.228;-2.322;2023-02-15T06:42:23;42.85;;;29.50;;
65405;SDS011;52016;51.228;-2.322;2023-02-15T06:46:05;43.97;;;29.98;;
65405;SDS011;52016;51.228;-2.322;2023-02-15T06:49:47;45.85;;;28.80;;
65405;SDS011;52016;51.228;-2.322;2023-02-15T06:53:29;40.30;;;26.98;;
65405;SDS011;52016;51.228;-2.322;2023-02-15T06:57:11;42.95;;;29.42;;
65405;SDS011;52016;51.228;-2.322;2023-02-15T07:00:52;43.95;;;28.33;;
65405;SDS011;52016;51.228;-2.322;2023-02-15T07:04:34;43.00;;;28.15;;
65405;SDS011;52016;51.228;-2.322;2023-02-15T07:08:16;37.10;;;25.20;;
65405;SDS011;52016;51.228;-2.322;2023-02-15T07:11:58;39.95;;;27.45;;
65405;SDS011;52016;51.228;-2.322;2023-02-15T07:15:59;40.40;;;26.20;;
65405;SDS011;52016;51.228;-2.322;2023-02-15T07:19:41;36.67;;;25.63;;
65405;SDS011;52016;51.228;-2.322;2023-02-15T07:23:22;36.83;;;25.40;;
65405;SDS011;52016;51.228;-2.322;2023-02-15T07:27:06;37.40;;;25.88;;
65405;SDS011;52016;51.228;-2.322;2023-02-15T07:30:49;39.28;;;25.40;;
65405;SDS011;52016;51.228;-2.322;2023-02-15T07:34:30;41.63;;;26.00;;
65405;SDS011;52016;51.228;-2.322;2023-02-15T07:38:12;39.13;;;25.35;;
65405;SDS011;52016;51.228;-2.322;2023-02-15T07:41:54;41.13;;;26.40;;
65405;SDS011;52016;51.228;-2.322;2023-02-15T07:45:36;46.40;;;27.67;;
65405;SDS011;52016;51.228;-2.322;2023-02-15T07:49:18;40.45;;;26.95;;
65405;SDS011;52016;51.228;-2.322;2023-02-15T07:53:03;41.63;;;25.45;;
65405;SDS011;52016;51.228;-2.322;2023-02-15T07:56:45;41.10;;;26.23;;
65405;SDS011;52016;51.228;-2.322;2023-02-15T08:00:27;40.30;;;25.63;;
65405;SDS011;52016;51.228;-2.322;2023-02-15T08:04:10;41.10;;;25.95;;
65405;SDS011;52016;51.228;-2.322;2023-02-15T08:07:52;38.60;;;25.70;;
65405;SDS011;52016;51.228;-2.322;2023-02-15T08:11:35;42.85;;;26.30;;
65405;SDS011;52016;51.228;-2.322;2023-02-15T08:15:17;45.30;;;26.55;;
65405;SDS011;52016;51.228;-2.322;2023-02-15T08:19:00;40.72;;;26.48;;
65405;SDS011;52016;51.228;-2.322;2023-02-15T08:22:53;40.80;;;26.65;;
65405;SDS011;52016;51.228;-2.322;2023-02-15T08:26:35;41.67;;;24.85;;
65405;SDS011;52016;51.228;-2.322;2023-02-15T08:30:18;40.20;;;25.58;;
65405;SDS011;52016;51.228;-2.322;2023-02-15T08:34:00;40.25;;;26.02;;
65405;SDS011;52016;51.228;-2.322;2023-02-15T08:37:42;38.72;;;24.77;;
65405;SDS011;52016;51.228;-2.322;2023-02-15T08:41:25;37.78;;;25.33;;
65405;SDS011;52016;51.228;-2.322;2023-02-15T08:45:08;41.35;;;24.40;;
65405;SDS011;52016;51.228;-2.322;2023-02-15T08:48:50;32.67;;;22.77;;
65405;SDS011;52016;51.228;-2.322;2023-02-15T08:52:32;37.53;;;24.00;;
65405;SDS011;52016;51.228;-2.322;2023-02-15T08:56:14;35.55;;;23.85;;
65405;SDS011;52016;51.228;-2.322;2023-02-15T08:59:57;41.88;;;23.30;;
65405;SDS011;52016;51.228;-2.322;2023-02-15T09:03:38;32.08;;;23.10;;
65405;SDS011;52016;51.228;-2.322;2023-02-15T09:07:21;32.03;;;21.10;;
65405;SDS011;52016;51.228;-2.322;2023-02-15T09:11:09;30.85;;;20.23;;
65405;SDS011;52016;51.228;-2.322;2023-02-15T09:14:52;33.78;;;20.50;;
65405;SDS011;52016;51.228;-2.322;2023-02-15T09:18:35;32.28;;;19.95;;
65405;SDS011;52016;51.228;-2.322;2023-02-15T09:22:19;29.75;;;17.45;;
65405;SDS011;52016;51.228;-2.322;2023-02-15T09:26:04;30.85;;;18.05;;
65405;SDS011;52016;51.228;-2.322;2023-02-15T09:29:48;26.48;;;16.35;;
65405;SDS011;52016;51.228;-2.322;2023-02-15T09:33:30;30.33;;;17.58;;
65405;SDS011;52016;51.228;-2.322;2023-02-15T09:37:13;29.27;;;17.35;;
65405;SDS011;52016;51.228;-2.322;2023-02-15T09:41:13;29.55;;;16.08;;
65405;SDS011;52016;51.228;-2.322;2023-02-15T09:49:10;25.02;;;13.90;;
65405;SDS011;52016;51.228;-2.322;2023-02-15T10:09:17;28.05;;;12.63;;
65405;SDS011;52016;51.228;-2.322;2023-02-15T10:17:40;24.45;;;12.40;;
65405;SDS011;52016;51.228;-2.322;2023-02-15T10:21:45;17.85;;;11.45;;
65405;SDS011;52016;51.228;-2.322;2023-02-15T10:25:46;24.30;;;14.05;;
65405;SDS011;52016;51.228;-2.322;2023-02-15T10:29:37;27.80;;;15.50;;
65405;SDS011;52016;51.228;-2.322;2023-02-15T10:33:38;33.63;;;16.27;;
65405;SDS011;52016;51.228;-2.322;2023-02-15T10:52:54;20.52;;;10.07;;
65405;SDS011;52016;51.228;-2.322;2023-02-15T10:57:05;25.95;;;10.90;;
65405;SDS011;52016;51.228;-2.322;2023-02-15T11:00:55;21.80;;;11.30;;
65405;SDS011;52016;51.228;-2.322;2023-02-15T11:05:02;25.25;;;11.27;;
65405;SDS011;52016;51.228;-2.322;2023-02-15T11:09:08;24.70;;;11.18;;
65405;SDS011;52016;51.228;-2.322;2023-02-15T11:12:52;22.80;;;11.00;;
65405;SDS011;52016;51.228;-2.322;2023-02-15T11:16:37;17.17;;;10.43;;
65405;SDS011;52016;51.228;-2.322;2023-02-15T11:24:30;22.63;;;9.93;;
65405;SDS011;52016;51.228;-2.322;2023-02-15T11:28:21;22.02;;;10.45;;
65405;SDS011;52016;51.228;-2.322;2023-02-15T11:32:13;20.42;;;9.77;;
65405;SDS011;52016;51.228;-2.322;2023-02-15T11:36:09;26.75;;;10.05;;
65405;SDS011;52016;51.228;-2.322;2023-02-15T11:39:58;23.10;;;9.68;;
65405;SDS011;52016;51.228;-2.322;2023-02-15T11:43:43;16.40;;;9.18;;
65405;SDS011;52016;51.228;-2.322;2023-02-15T11:47:42;23.73;;;9.60;;
65405;SDS011;52016;51.228;-2.322;2023-02-15T11:51:24;22.70;;;8.27;;
65405;SDS011;52016;51.228;-2.322;2023-02-15T11:55:12;25.98;;;10.35;;
65405;SDS011;52016;51.228;-2.322;2023-02-15T11:59:00;17.80;;;8.27;;
65405;SDS011;52016;51.228;-2.322;2023-02-15T12:02:46;20.73;;;8.18;;
65405;SDS011;52016;51.228;-2.322;2023-02-15T12:10:24;34.35;;;9.85;;
65405;SDS011;52016;51.228;-2.322;2023-02-15T12:14:09;21.38;;;8.90;;
65405;SDS011;52016;51.228;-2.322;2023-02-15T12:17:56;14.77;;;8.45;;
65405;SDS011;52016;51.228;-2.322;2023-02-15T12:21:39;22.13;;;9.30;;
65405;SDS011;52016;51.228;-2.322;2023-02-15T12:25:27;35.25;;;10.35;;
65405;SDS011;52016;51.228;-2.322;2023-02-15T12:29:16;16.05;;;8.48;;
65405;SDS011;52016;51.228;-2.322;2023-02-15T12:36:55;29.67;;;9.60;;
65405;SDS011;52016;51.228;-2.322;2023-02-15T12:40:39;31.23;;;9.55;;
65405;SDS011;52016;51.228;-2.322;2023-02-15T12:44:22;21.15;;;8.52;;
65405;SDS011;52016;51.228;-2.322;2023-02-15T12:48:08;28.33;;;9.00;;
65405;SDS011;52016;51.228;-2.322;2023-02-15T12:51:58;16.77;;;9.07;;
65405;SDS011;52016;51.228;-2.322;2023-02-15T12:55:55;18.85;;;8.27;;
65405;SDS011;52016;51.228;-2.322;2023-02-15T12:59:47;14.65;;;7.75;;
65405;SDS011;52016;51.228;-2.322;2023-02-15T13:03:29;14.68;;;7.18;;
65405;SDS011;52016;51.228;-2.322;2023-02-15T13:07:11;32.78;;;8.32;;
65405;SDS011;52016;51.228;-2.322;2023-02-15T13:14:52;33.37;;;8.60;;
65405;SDS011;52016;51.228;-2.322;2023-02-15T13:18:39;14.48;;;7.40;;
65405;SDS011;52016;51.228;-2.322;2023-02-15T13:22:27;19.33;;;8.02;;
65405;SDS011;52016;51.228;-2.322;2023-02-15T13:26:18;19.63;;;7.07;;
65405;SDS011;52016;51.228;-2.322;2023-02-15T13:30:03;22.13;;;8.32;;
65405;SDS011;52016;51.228;-2.322;2023-02-15T13:34:00;16.88;;;7.93;;
65405;SDS011;52016;51.228;-2.322;2023-02-15T13:37:57;16.05;;;7.32;;
65405;SDS011;52016;51.228;-2.322;2023-02-15T13:54:03;20.38;;;7.95;;
65405;SDS011;52016;51.228;-2.322;2023-02-15T14:01:58;18.42;;;7.75;;
65405;SDS011;52016;51.228;-2.322;2023-02-15T14:10:13;27.13;;;7.00;;
65405;SDS011;52016;51.228;-2.322;2023-02-15T14:18:19;16.02;;;7.00;;
65405;SDS011;52016;51.228;-2.322;2023-02-15T14:22:38;20.30;;;7.35;;
65405;SDS011;52016;51.228;-2.322;2023-02-15T14:26:34;18.23;;;6.88;;
65405;SDS011;52016;51.228;-2.322;2023-02-15T14:30:34;19.92;;;7.78;;
65405;SDS011;52016;51.228;-2.322;2023-02-15T14:34:21;22.83;;;9.10;;
65405;SDS011;52016;51.228;-2.322;2023-02-15T14:42:43;26.75;;;7.05;;
65405;SDS011;52016;51.228;-2.322;2023-02-15T14:46:54;14.50;;;5.72;;
65405;SDS011;52016;51.228;-2.322;2023-02-15T14:50:50;18.63;;;7.22;;
65405;SDS011;52016;51.228;-2.322;2023-02-15T14:58:14;27.85;;;7.57;;
65405;SDS011;52016;51.228;-2.322;2023-02-15T15:01:57;28.25;;;8.30;;
65405;SDS011;52016;51.228;-2.322;2023-02-15T15:05:54;22.83;;;7.43;;
65405;SDS011;52016;51.228;-2.322;2023-02-15T15:09:41;22.33;;;6.75;;
65405;SDS011;52016;51.228;-2.322;2023-02-15T15:25:43;24.63;;;10.52;;
65405;SDS011;52016;51.228;-2.322;2023-02-15T15:29:39;30.00;;;9.57;;
65405;SDS011;52016;51.228;-2.322;2023-02-15T15:49:14;25.98;;;8.23;;
65405;SDS011;52016;51.228;-2.322;2023-02-15T15:52:59;28.10;;;8.57;;
65405;SDS011;52016;51.228;-2.322;2023-02-15T15:56:44;25.02;;;8.95;;
65405;SDS011;52016;51.228;-2.322;2023-02-15T16:00:42;29.30;;;8.75;;
65405;SDS011;52016;51.228;-2.322;2023-02-15T16:04:29;24.20;;;7.82;;
65405;SDS011;52016;51.228;-2.322;2023-02-15T16:08:13;22.45;;;8.32;;
65405;SDS011;52016;51.228;-2.322;2023-02-15T16:11:58;12.75;;;4.63;;
65405;SDS011;52016;51.228;-2.322;2023-02-15T16:19:27;2.72;;;1.90;;
65405;SDS011;52016;51.228;-2.322;2023-02-15T16:27:14;6.05;;;1.05;;
65405;SDS011;52016;51.228;-2.322;2023-02-15T16:31:11;3.60;;;0.98;;
65405;SDS011;52016;51.228;-2.322;2023-02-15T16:42:23;2.70;;;1.02;;
65405;SDS011;52016;51.228;-2.322;2023-02-15T16:46:12;1.58;;;0.90;;
65405;SDS011;52016;51.228;-2.322;2023-02-15T16:50:03;3.33;;;1.45;;
65405;SDS011;52016;51.228;-2.322;2023-02-15T16:53:46;4.50;;;1.90;;
65405;SDS011;52016;51.228;-2.322;2023-02-15T16:57:30;3.13;;;1.35;;
65405;SDS011;52016;51.228;-2.322;2023-02-15T17:01:16;2.17;;;1.90;;
65405;SDS011;52016;51.228;-2.322;2023-02-15T17:05:08;4.82;;;1.85;;
65405;SDS011;52016;51.228;-2.322;2023-02-15T17:09:05;3.30;;;1.88;;
65405;SDS011;52016;51.228;-2.322;2023-02-15T17:12:55;4.38;;;1.73;;
65405;SDS011;52016;51.228;-2.322;2023-02-15T17:20:30;2.30;;;2.00;;
65405;SDS011;52016;51.228;-2.322;2023-02-15T17:24:18;4.38;;;3.25;;
65405;SDS011;52016;51.228;-2.322;2023-02-15T17:28:23;3.70;;;2.72;;
65405;SDS011;52016;51.228;-2.322;2023-02-15T17:32:18;4.03;;;3.13;;
65405;SDS011;52016;51.228;-2.322;2023-02-15T17:36:11;3.10;;;1.90;;
65405;SDS011;52016;51.228;-2.322;2023-02-15T17:39:57;5.78;;;2.63;;
65405;SDS011;52016;51.228;-2.322;2023-02-15T17:43:40;2.58;;;2.30;;
65405;SDS011;52016;51.228;-2.322;2023-02-15T17:47:23;3.38;;;2.25;;
65405;SDS011;52016;51.228;-2.322;2023-02-15T17:51:10;4.68;;;2.63;;
65405;SDS011;52016;51.228;-2.322;2023-02-15T17:54:54;2.33;;;1.70;;
65405;SDS011;52016;51.228;-2.322;2023-02-15T17:58:55;2.63;;;1.80;;
65405;SDS011;52016;51.228;-2.322;2023-02-15T18:02:37;3.22;;;1.63;;
65405;SDS011;52016;51.228;-2.322;2023-02-15T18:06:38;3.92;;;1.83;;
65405;SDS011;52016;51.228;-2.322;2023-02-15T18:10:40;2.53;;;1.80;;
65405;SDS011;52016;51.228;-2.322;2023-02-15T18:14:41;6.30;;;2.58;;
65405;SDS011;52016;51.228;-2.322;2023-02-15T18:18:22;6.35;;;2.53;;
65405;SDS011;52016;51.228;-2.322;2023-02-15T18:22:09;6.90;;;3.53;;
65405;SDS011;52016;51.228;-2.322;2023-02-15T18:25:56;9.73;;;4.20;;
65405;SDS011;52016;51.228;-2.322;2023-02-15T18:29:38;8.45;;;4.32;;
65405;SDS011;52016;51.228;-2.322;2023-02-15T18:33:40;5.70;;;4.50;;
65405;SDS011;52016;51.228;-2.322;2023-02-15T18:37:31;11.25;;;6.88;;
65405;SDS011;52016;51.228;-2.322;2023-02-15T18:41:15;12.27;;;7.75;;
65405;SDS011;52016;51.228;-2.322;2023-02-15T18:45:00;11.75;;;7.60;;
65405;SDS011;52016;51.228;-2.322;2023-02-15T18:48:56;6.10;;;4.03;;
65405;SDS011;52016;51.228;-2.322;2023-02-15T18:52:37;9.38;;;6.03;;
65405;SDS011;52016;51.228;-2.322;2023-02-15T18:56:20;9.48;;;4.20;;
65405;SDS011;52016;51.228;-2.322;2023-02-15T19:00:03;4.90;;;3.00;;
65405;SDS011;52016;51.228;-2.322;2023-02-15T19:03:48;9.30;;;4.30;;
65405;SDS011;52016;51.228;-2.322;2023-02-15T19:07:31;12.43;;;7.60;;
65405;SDS011;52016;51.228;-2.322;2023-02-15T19:11:15;8.55;;;4.82;;
65405;SDS011;52016;51.228;-2.322;2023-02-15T19:14:59;9.77;;;5.50;;
65405;SDS011;52016;51.228;-2.322;2023-02-15T19:18:42;13.23;;;7.43;;
65405;SDS011;52016;51.228;-2.322;2023-02-15T19:22:24;10.55;;;4.47;;
65405;SDS011;52016;51.228;-2.322;2023-02-15T19:26:09;13.63;;;7.07;;
65405;SDS011;52016;51.228;-2.322;2023-02-15T19:29:51;18.33;;;10.02;;
65405;SDS011;52016;51.228;-2.322;2023-02-15T19:33:34;32.78;;;18.25;;
65405;SDS011;52016;51.228;-2.322;2023-02-15T19:37:22;25.60;;;14.27;;
65405;SDS011;52016;51.228;-2.322;2023-02-15T19:41:07;11.73;;;7.53;;
65405;SDS011;52016;51.228;-2.322;2023-02-15T19:48:36;8.10;;;3.85;;
65405;SDS011;52016;51.228;-2.322;2023-02-15T19:52:18;16.65;;;8.82;;
65405;SDS011;52016;51.228;-2.322;2023-02-15T19:56:09;16.42;;;10.02;;
65405;SDS011;52016;51.228;-2.322;2023-02-15T19:59:53;11.05;;;7.30;;
65405;SDS011;52016;51.228;-2.322;2023-02-15T20:03:35;12.23;;;8.02;;
65405;SDS011;52016;51.228;-2.322;2023-02-15T20:07:26;11.20;;;7.90;;
65405;SDS011;52016;51.228;-2.322;2023-02-15T20:11:09;11.30;;;8.85;;
65405;SDS011;52016;51.228;-2.322;2023-02-15T20:14:53;12.27;;;8.80;;
65405;SDS011;52016;51.228;-2.322;2023-02-15T20:18:36;49.85;;;9.45;;
65405;SDS011;52016;51.228;-2.322;2023-02-15T20:22:22;94.47;;;7.95;;
65405;SDS011;52016;51.228;-2.322;2023-02-15T20:26:13;106.45;;;7.28;;
65405;SDS011;52016;51.228;-2.322;2023-02-15T20:29:58;69.57;;;7.57;;
65405;SDS011;52016;51.228;-2.322;2023-02-15T20:33:40;73.60;;;7.72;;
65405;SDS011;52016;51.228;-2.322;2023-02-15T20:37:22;29.73;;;7.93;;
65405;SDS011;52016;51.228;-2.322;2023-02-15T20:41:11;20.50;;;9.38;;
65405;SDS011;52016;51.228;-2.322;2023-02-15T20:49:25;27.48;;;9.82;;
65405;SDS011;52016;51.228;-2.322;2023-02-15T20:53:07;29.00;;;11.65;;
65405;SDS011;52016;51.228;-2.322;2023-02-15T20:56:50;16.85;;;10.38;;
65405;SDS011;52016;51.228;-2.322;2023-02-15T21:00:34;16.25;;;9.77;;
65405;SDS011;52016;51.228;-2.322;2023-02-15T21:04:17;16.63;;;10.13;;
65405;SDS011;52016;51.228;-2.322;2023-02-15T21:08:00;13.13;;;9.45;;
65405;SDS011;52016;51.228;-2.322;2023-02-15T21:11:42;10.25;;;6.85;;
65405;SDS011;52016;51.228;-2.322;2023-02-15T21:19:12;7.18;;;5.75;;
65405;SDS011;52016;51.228;-2.322;2023-02-15T21:22:56;8.90;;;6.75;;
65405;SDS011;52016;51.228;-2.322;2023-02-15T21:26:42;10.45;;;6.32;;
65405;SDS011;52016;51.228;-2.322;2023-02-15T21:30:26;9.73;;;7.13;;
65405;SDS011;52016;51.228;-2.322;2023-02-15T21:34:08;8.80;;;4.60;;
65405;SDS011;52016;51.228;-2.322;2023-02-15T21:37:50;7.47;;;4.85;;
65405;SDS011;52016;51.228;-2.322;2023-02-15T21:41:33;9.63;;;4.93;;
65405;SDS011;52016;51.228;-2.322;2023-02-15T21:45:34;8.35;;;4.68;;
65405;SDS011;52016;51.228;-2.322;2023-02-15T21:49:34;7.97;;;4.18;;
65405;SDS011;52016;51.228;-2.322;2023-02-15T21:53:35;5.30;;;3.90;;
65405;SDS011;52016;51.228;-2.322;2023-02-15T21:57:27;9.07;;;4.32;;
65405;SDS011;52016;51.228;-2.322;2023-02-15T22:01:15;5.15;;;4.20;;
65405;SDS011;52016;51.228;-2.322;2023-02-15T22:05:08;6.85;;;4.40;;
65405;SDS011;52016;51.228;-2.322;2023-02-15T22:08:55;5.72;;;4.32;;
65405;SDS011;52016;51.228;-2.322;2023-02-15T22:12:38;6.80;;;4.97;;
65405;SDS011;52016;51.228;-2.322;2023-02-15T22:16:21;6.47;;;4.55;;
65405;SDS011;52016;51.228;-2.322;2023-02-15T22:20:04;6.00;;;4.95;;
65405;SDS011;52016;51.228;-2.322;2023-02-15T22:23:54;12.20;;;5.45;;
65405;SDS011;52016;51.228;-2.322;2023-02-15T22:27:37;9.32;;;5.25;;
65405;SDS011;52016;51.228;-2.322;2023-02-15T22:31:21;8.77;;;5.45;;
65405;SDS011;52016;51.228;-2.322;2023-02-15T22:35:05;6.88;;;5.43;;
65405;SDS011;52016;51.228;-2.322;2023-02-15T22:38:52;7.53;;;5.43;;
65405;SDS011;52016;51.228;-2.322;2023-02-15T22:42:36;9.18;;;5.40;;
65405;SDS011;52016;51.228;-2.322;2023-02-15T22:46:19;10.35;;;4.70;;
65405;SDS011;52016;51.228;-2.322;2023-02-15T22:50:04;5.80;;;4.53;;
65405;SDS011;52016;51.228;-2.322;2023-02-15T22:53:55;7.53;;;5.03;;
65405;SDS011;52016;51.228;-2.322;2023-02-15T22:57:37;6.80;;;4.43;;
65405;SDS011;52016;51.228;-2.322;2023-02-15T23:01:28;5.32;;;4.43;;
65405;SDS011;52016;51.228;-2.322;2023-02-15T23:09:05;5.60;;;4.30;;
65405;SDS011;52016;51.228;-2.322;2023-02-15T23:12:47;7.15;;;4.35;;
65405;SDS011;52016;51.228;-2.322;2023-02-15T23:16:49;8.25;;;4.60;;
65405;SDS011;52016;51.228;-2.322;2023-02-15T23:20:31;7.15;;;4.65;;
65405;SDS011;52016;51.228;-2.322;2023-02-15T23:24:17;10.70;;;4.75;;
65405;SDS011;52016;51.228;-2.322;2023-02-15T23:28:03;7.78;;;4.43;;
65405;SDS011;52016;51.228;-2.322;2023-02-15T23:31:47;5.55;;;4.32;;
65405;SDS011;52016;51.228;-2.322;2023-02-15T23:35:30;6.22;;;4.50;;
65405;SDS011;52016;51.228;-2.322;2023-02-15T23:39:13;9.65;;;4.80;;
65405;SDS011;52016;51.228;-2.322;2023-02-15T23:43:18;6.15;;;4.68;;
65405;SDS011;52016;51.228;-2.322;2023-02-15T23:47:02;7.30;;;4.50;;
65405;SDS011;52016;51.228;-2.322;2023-02-15T23:50:44;5.40;;;4.20;;
65405;SDS011;52016;51.228;-2.322;2023-02-15T23:54:26;6.43;;;4.47;;
65405;SDS011;52016;51.228;-2.322;2023-02-15T23:58:11;6.28;;;4.70;;
